Time;durP1;ratioP1;P1;durP2;ratioP2;P2;SDS_P1;SDS_P2;PMS_P1;PMS_P2;Temp;Humidity;BMP_temperature;BMP_pressure;BME280_temperature;BME280_humidity;BME280_pressure;Samples;Min_cycle;Max_cycle;Signal;HPM_P1;HPM_P2
2021/12/19 00:00:10;;;;;;;18.90;9.15;;;;;;;5.97;95.57;103599.53;4974205;28;20045;-74
2021/12/19 00:03:31;;;;;;;24.33;9.88;;;;;;;5.95;95.40;103597.75;4987513;28;20397;-73
2021/12/19 00:08:35;;;;;;;20.83;9.75;;;;;;;5.94;95.24;103586.06;4989520;28;20045;-74
2021/12/19 00:11:00;;;;;;;18.92;9.20;;;;;;;5.95;95.71;103582.44;4988704;28;20023;-74
2021/12/19 00:13:27;;;;;;;21.88;10.27;;;;;;;5.95;95.50;103587.84;4985154;28;20442;-74
2021/12/19 00:15:53;;;;;;;21.95;9.68;;;;;;;5.94;95.36;103583.34;4989113;28;20081;-75
2021/12/19 00:18:19;;;;;;;24.27;10.38;;;;;;;5.93;95.54;103575.28;4985462;28;21586;-76
2021/12/19 00:20:44;;;;;;;20.15;8.95;;;;;;;5.92;95.78;103570.75;4978961;28;20038;-75
2021/12/19 00:23:10;;;;;;;18.50;8.98;;;;;;;5.94;95.37;103579.75;4989143;28;20033;-75
2021/12/19 00:25:35;;;;;;;18.13;8.75;;;;;;;5.94;95.10;103579.75;4986624;28;20526;-75
2021/12/19 00:28:00;;;;;;;17.52;7.50;;;;;;;5.94;95.75;103574.34;4975930;28;20023;-75
2021/12/19 00:30:26;;;;;;;18.23;8.43;;;;;;;5.93;95.31;103577.97;4988382;28;20022;-76
2021/12/19 00:32:51;;;;;;;24.90;9.23;;;;;;;5.90;95.95;103565.34;4986749;28;20109;-76
2021/12/19 00:35:17;;;;;;;19.90;9.73;;;;;;;5.90;95.91;103554.53;4973453;28;20395;-73
2021/12/19 00:37:42;;;;;;;22.23;9.75;;;;;;;5.88;95.68;103559.06;4988549;28;20440;-76
2021/12/19 00:40:08;;;;;;;22.27;9.40;;;;;;;5.91;95.71;103567.13;4979752;28;20543;-75
2021/12/19 00:42:35;;;;;;;19.20;8.98;;;;;;;5.91;95.95;103559.03;4987915;28;20038;-76
2021/12/19 00:45:16;;;;;;;22.77;9.57;;;;;;;5.89;95.63;103566.25;4986677;28;20371;-73
2021/12/19 00:47:44;;;;;;;22.52;9.77;;;;;;;5.87;95.65;103568.97;4988376;28;20018;-77
2021/12/19 00:50:10;;;;;;;25.05;10.85;;;;;;;5.86;95.76;103564.47;4984699;28;20036;-75
2021/12/19 00:52:35;;;;;;;26.02;8.98;;;;;;;5.86;95.81;103561.75;4983764;28;20074;-75
2021/12/19 00:55:01;;;;;;;21.35;8.68;;;;;;;5.82;95.72;103556.41;4980877;28;20614;-75
2021/12/19 00:57:26;;;;;;;20.77;8.48;;;;;;;5.77;95.82;103550.16;4988699;28;20501;-78
2021/12/19 00:59:51;;;;;;;21.23;8.45;;;;;;;5.80;95.47;103559.13;4987960;28;20036;-75
2021/12/19 01:02:16;;;;;;;19.33;8.32;;;;;;;5.77;95.98;103550.16;4975656;28;20034;-75
2021/12/19 01:04:42;;;;;;;16.92;6.88;;;;;;;5.80;95.71;103550.13;4975071;28;20124;-73
2021/12/19 01:07:07;;;;;;;23.60;8.40;;;;;;;5.79;95.95;103556.44;4987398;28;20120;-74
2021/12/19 01:09:33;;;;;;;19.60;7.15;;;;;;;5.77;96.17;103553.75;4988437;28;20085;-73
2021/12/19 01:11:58;;;;;;;20.33;7.43;;;;;;;5.76;96.06;103559.16;4983078;28;20022;-77
2021/12/19 01:14:23;;;;;;;21.83;7.85;;;;;;;5.77;96.20;103552.84;4986065;28;20018;-73
2021/12/19 01:16:49;;;;;;;21.17;7.70;;;;;;;5.74;96.22;103544.78;4987755;28;20019;-73
2021/12/19 01:19:14;;;;;;;29.52;9.10;;;;;;;5.76;96.25;103548.38;4974752;28;20034;-72
2021/12/19 01:21:39;;;;;;;23.67;9.13;;;;;;;5.76;96.48;103542.97;4986658;28;20022;-73
2021/12/19 01:24:05;;;;;;;21.90;8.93;;;;;;;5.78;96.46;103541.13;4987966;28;20080;-76
2021/12/19 01:26:30;;;;;;;26.38;8.32;;;;;;;5.72;96.13;103525.88;4984968;28;20029;-75
2021/12/19 01:28:55;;;;;;;23.50;8.50;;;;;;;5.77;96.08;103539.34;4977251;28;20030;-75
2021/12/19 01:31:21;;;;;;;23.35;8.13;;;;;;;5.75;96.02;103546.56;4985803;28;20030;-75
2021/12/19 01:33:46;;;;;;;21.33;7.63;;;;;;;5.70;96.00;103543.91;4985010;28;20030;-73
2021/12/19 01:36:12;;;;;;;23.00;8.60;;;;;;;5.71;95.98;103540.28;4986855;28;20076;-77
2021/12/19 01:38:37;;;;;;;23.50;7.75;;;;;;;5.70;95.85;103532.22;4987854;28;20029;-76
2021/12/19 01:41:03;;;;;;;21.70;7.90;;;;;;;5.69;95.94;103531.31;4978662;28;20446;-75
2021/12/19 01:43:30;;;;;;;21.13;8.30;;;;;;;5.67;96.05;103537.63;4985026;28;20026;-75
2021/12/19 01:45:57;;;;;;;22.98;8.93;;;;;;;5.65;95.91;103534.97;4986532;28;20018;-76
2021/12/19 01:48:23;;;;;;;19.58;7.78;;;;;;;5.66;96.26;103527.75;4982644;28;20585;-78
2021/12/19 01:50:50;;;;;;;23.10;7.90;;;;;;;5.65;96.26;103536.78;4980896;28;20053;-75
2021/12/19 01:53:16;;;;;;;20.98;7.97;;;;;;;5.65;96.28;103529.56;4983268;28;20026;-75
2021/12/19 01:55:43;;;;;;;21.45;7.53;;;;;;;5.62;96.14;103522.38;4985299;28;20019;-78
2021/12/19 01:58:10;;;;;;;20.77;8.18;;;;;;;5.63;96.31;103531.34;4987767;28;20034;-73
2021/12/19 02:00:39;;;;;;;25.98;9.25;;;;;;;5.60;96.27;103523.31;4986400;28;20042;-73
2021/12/19 02:03:06;;;;;;;20.58;8.00;;;;;;;5.61;96.48;103525.97;4974131;28;20089;-74
2021/12/19 02:05:32;;;;;;;32.90;10.85;;;;;;;5.58;96.57;103527.81;4978919;28;20141;-74
2021/12/19 02:07:58;;;;;;;30.10;10.32;;;;;;;5.55;96.70;103515.25;4986973;28;20101;-72
2021/12/19 02:10:27;;;;;;;31.35;11.57;;;;;;;5.55;96.78;103515.25;4985626;28;20030;-72
2021/12/19 02:12:53;;;;;;;27.42;9.18;;;;;;;5.53;96.62;103516.16;4986526;28;20034;-74
2021/12/19 02:15:22;;;;;;;32.83;11.80;;;;;;;5.51;96.45;103516.19;4985446;28;20034;-73
2021/12/19 02:17:51;;;;;;;33.70;12.50;;;;;;;5.48;96.44;103515.28;4987331;28;20023;-76
2021/12/19 02:20:17;;;;;;;29.50;10.25;;;;;;;5.46;96.96;103514.44;4979041;28;20030;-73
2021/12/19 02:22:43;;;;;;;34.40;11.35;;;;;;;5.46;97.28;103511.72;4987085;28;20022;-76
2021/12/19 02:25:09;;;;;;;40.00;11.13;;;;;;;5.45;97.10;103507.22;4976278;28;20026;-76
2021/12/19 02:27:35;;;;;;;32.10;11.93;;;;;;;5.46;97.27;103498.22;4987101;28;20057;-75
2021/12/19 02:30:01;;;;;;;39.63;12.13;;;;;;;5.48;97.34;103507.19;4986790;28;20363;-72
2021/12/19 02:32:29;;;;;;;34.75;11.18;;;;;;;5.47;97.01;103503.59;4986989;28;20097;-76
2021/12/19 02:34:57;;;;;;;45.53;12.55;;;;;;;5.46;97.25;103495.53;4983350;28;20034;-73
2021/12/19 02:40:21;;;;;;;36.90;11.27;;;;;;;5.44;97.24;103486.53;4977853;28;20042;-73
2021/12/19 02:48:13;;;;;;;31.02;10.07;;;;;;;5.38;96.67;103482.09;4976236;28;20121;-74
2021/12/19 02:50:46;;;;;;;;;;;;;;;5.41;96.61;103483.84;4985087;28;20061;-73
2021/12/19 02:53:13;;;;;;;22.33;9.13;;;;;;;5.37;96.85;103480.31;4986253;28;19913;-73
2021/12/19 02:55:39;;;;;;;28.48;9.98;;;;;;;5.35;96.64;103472.19;4976916;28;20080;-74
2021/12/19 02:58:05;;;;;;;32.63;10.57;;;;;;;5.33;97.06;103467.72;4981197;28;20629;-76
2021/12/19 03:00:30;;;;;;;40.08;12.43;;;;;;;5.36;96.92;103474.00;4987564;28;20121;-73
2021/12/19 03:02:56;;;;;;;34.10;10.48;;;;;;;5.35;96.71;103472.19;4981492;28;20113;-73
2021/12/19 03:05:23;;;;;;;34.40;11.50;;;;;;;5.33;96.84;103467.72;4980866;28;20042;-73
2021/12/19 03:07:50;;;;;;;39.25;11.55;;;;;;;5.32;97.11;103468.66;4982780;28;20097;-76
2021/12/19 03:10:59;;;;;;;38.33;11.60;;;;;;;5.31;97.18;103481.22;4976285;28;20037;-73
2021/12/19 03:18:29;;;;;;;38.03;10.77;;;;;;;5.37;97.07;103462.28;4989325;28;20060;-75
2021/12/19 03:20:54;;;;;;;30.67;10.15;;;;;;;5.38;97.22;103460.50;4987951;28;20030;-72
2021/12/19 03:23:19;;;;;;;38.70;12.93;;;;;;;5.40;97.00;103463.16;4989919;28;20497;-73
2021/12/19 03:25:45;;;;;;;43.65;11.75;;;;;;;5.35;97.19;103445.19;4989089;28;20037;-74
2021/12/19 03:28:12;;;;;;;37.58;11.95;;;;;;;5.36;97.35;103448.78;4988163;28;20377;-73
2021/12/19 03:30:41;;;;;;;44.50;11.40;;;;;;;5.35;97.08;103450.59;4985113;28;20053;-75
2021/12/19 03:33:07;;;;;;;40.08;11.45;;;;;;;5.34;97.14;103437.13;4984856;28;20031;-75
2021/12/19 03:35:32;;;;;;;45.97;11.93;;;;;;;5.34;97.53;103435.31;4986997;28;20032;-74
2021/12/19 03:38:02;;;;;;;43.25;11.38;;;;;;;5.33;97.52;103429.94;4989829;28;20022;-73
2021/12/19 03:40:43;;;;;;;39.97;10.85;;;;;;;5.31;97.54;103439.84;4987952;28;20514;-78
2021/12/19 03:43:10;;;;;;;42.95;10.98;;;;;;;5.31;97.79;103438.03;4989855;28;20096;-73
2021/12/19 03:45:36;;;;;;;35.78;11.25;;;;;;;5.27;97.13;103440.78;4988955;28;20736;-75
2021/12/19 03:48:04;;;;;;;32.20;11.50;;;;;;;5.26;97.57;103433.59;4989686;28;20421;-76
2021/12/19 03:50:31;;;;;;;31.80;9.32;;;;;;;5.24;97.31;103432.72;4979535;28;20046;-73
2021/12/19 03:52:57;;;;;;;25.38;8.15;;;;;;;5.22;97.42;103426.44;4989168;28;20050;-78
2021/12/19 03:55:24;;;;;;;24.40;8.00;;;;;;;5.20;97.37;103430.97;4974787;28;20711;-73
2021/12/19 03:57:49;;;;;;;32.10;8.80;;;;;;;5.16;97.27;103418.41;4988699;28;20406;-75
2021/12/19 04:00:22;;;;;;;22.73;7.55;;;;;;;5.15;97.15;103417.50;4985740;28;20026;-74
2021/12/19 04:02:48;;;;;;;29.60;8.68;;;;;;;5.11;97.34;103416.63;4988497;28;20034;-76
2021/12/19 04:05:13;;;;;;;26.20;7.78;;;;;;;5.12;97.03;103425.63;4983025;28;20042;-74
2021/12/19 04:07:38;;;;;;;21.35;7.32;;;;;;;5.11;97.21;103416.63;4988468;28;20030;-75
2021/12/19 04:10:04;;;;;;;20.45;7.03;;;;;;;5.09;97.36;103418.47;4988901;28;20068;-76
2021/12/19 04:12:30;;;;;;;28.52;7.88;;;;;;;5.03;97.35;103413.09;4983462;28;20409;-76
2021/12/19 04:14:55;;;;;;;22.98;6.80;;;;;;;4.96;97.38;103411.34;4980031;28;20035;-75
2021/12/19 04:17:21;;;;;;;21.02;7.13;;;;;;;4.91;96.79;103415.00;4989280;28;20030;-75
2021/12/19 04:19:47;;;;;;;22.75;6.43;;;;;;;4.86;97.00;103401.56;4984349;28;20393;-75
2021/12/19 04:22:12;;;;;;;19.63;6.88;;;;;;;4.83;97.33;103405.16;4974702;28;20026;-75
2021/12/19 04:24:37;;;;;;;18.88;5.65;;;;;;;4.83;97.18;103401.56;4988787;28;20065;-78
2021/12/19 04:27:03;;;;;;;19.33;6.80;;;;;;;4.80;97.27;103394.41;4984197;28;20072;-76
2021/12/19 04:29:29;;;;;;;15.45;6.05;;;;;;;4.82;97.36;103391.69;4988338;28;20502;-78
2021/12/19 04:31:54;;;;;;;16.77;5.68;;;;;;;4.81;96.78;103385.41;4989442;28;20026;-75
2021/12/19 04:34:21;;;;;;;15.43;6.63;;;;;;;4.84;97.05;103385.38;4981838;28;20391;-76
2021/12/19 04:36:51;;;;;;;13.98;6.07;;;;;;;4.86;96.77;103380.88;4973447;28;20113;-76
2021/12/19 04:50:58;;;;;;;12.77;6.05;;;;;;;4.89;96.59;103371.84;4988372;28;20030;-75
2021/12/19 05:14:11;;;;;;;22.92;5.97;;;;;;;4.84;96.76;103349.41;4980600;28;20040;-75
2021/12/19 05:16:40;;;;;;;15.00;5.35;;;;;;;4.86;96.85;103356.59;4987958;28;20029;-78
2021/12/19 05:19:17;;;;;;;20.48;5.95;;;;;;;4.83;97.15;103353.91;4982324;28;20057;-75
2021/12/19 05:21:42;;;;;;;22.05;6.15;;;;;;;4.83;97.29;103355.72;4988239;28;20137;-75
2021/12/19 05:24:21;;;;;;;23.15;6.43;;;;;;;4.82;97.06;103357.53;4986608;28;20105;-78
2021/12/19 05:26:48;;;;;;;20.00;6.57;;;;;;;4.82;97.13;103362.91;4983076;28;20026;-75
2021/12/19 05:29:15;;;;;;;23.25;7.15;;;;;;;4.78;96.85;103353.06;4983345;28;20034;-74
2021/12/19 05:31:41;;;;;;;20.70;6.68;;;;;;;4.83;97.01;103362.00;4988096;28;20037;-79
2021/12/19 05:34:06;;;;;;;19.45;6.28;;;;;;;4.83;96.70;103358.41;4979303;28;20394;-79
2021/12/19 05:47:25;;;;;;;15.27;5.25;;;;;;;4.89;96.57;103346.69;4988071;28;20590;-75
2021/12/19 05:49:50;;;;;;;15.63;4.55;;;;;;;4.90;96.72;103351.19;4980190;28;20030;-76
2021/12/19 05:52:15;;;;;;;11.15;4.32;;;;;;;4.91;96.57;103347.56;4987599;28;20118;-77
2021/12/19 05:54:41;;;;;;;12.20;4.50;;;;;;;4.92;97.02;103347.56;4987645;28;20398;-77
2021/12/19 05:57:07;;;;;;;11.82;4.47;;;;;;;4.93;96.76;103352.03;4980812;28;20073;-76
2021/12/19 05:59:32;;;;;;;12.65;4.57;;;;;;;4.95;96.55;103333.16;4987021;28;20022;-76
2021/12/19 06:01:57;;;;;;;12.73;4.57;;;;;;;4.92;96.62;103325.97;4987302;28;20445;-77
2021/12/19 06:04:23;;;;;;;12.23;4.63;;;;;;;4.95;96.69;103327.75;4978398;28;20047;-75
2021/12/19 06:06:49;;;;;;;14.40;4.55;;;;;;;4.94;96.78;103324.16;4986875;28;20026;-77
2021/12/19 06:09:15;;;;;;;10.73;4.25;;;;;;;4.94;96.56;103329.53;4987995;28;20069;-75
2021/12/19 06:11:40;;;;;;;11.75;4.75;;;;;;;4.95;96.93;103328.66;4983862;28;20553;-77
2021/12/19 06:14:05;;;;;;;10.68;3.85;;;;;;;4.96;96.74;103327.75;4985019;28;20053;-79
2021/12/19 06:16:31;;;;;;;12.75;4.97;;;;;;;4.96;96.77;103329.53;4985422;28;20050;-77
2021/12/19 06:18:56;;;;;;;14.70;5.03;;;;;;;4.98;96.79;103334.00;4984806;28;20034;-77
2021/12/19 06:21:22;;;;;;;10.30;4.05;;;;;;;4.98;96.94;103328.59;4988179;28;20474;-76
2021/12/19 06:23:47;;;;;;;13.95;5.25;;;;;;;5.00;96.75;103334.00;4986394;28;20539;-79
2021/12/19 06:26:12;;;;;;;15.93;5.10;;;;;;;4.98;96.77;103333.09;4984912;28;20030;-76
2021/12/19 06:28:38;;;;;;;15.50;5.35;;;;;;;4.99;96.64;103335.81;4987929;28;20080;-77
2021/12/19 06:31:04;;;;;;;15.25;5.43;;;;;;;4.97;96.82;103331.31;4990013;28;20030;-77
2021/12/19 06:33:29;;;;;;;9.95;4.32;;;;;;;4.99;96.74;103330.41;4985254;28;20041;-75
2021/12/19 06:35:54;;;;;;;17.63;5.80;;;;;;;4.98;97.05;103323.22;4987524;28;20014;-77
2021/12/19 06:38:20;;;;;;;12.90;5.03;;;;;;;5.01;96.95;103320.50;4991763;28;20478;-75
2021/12/19 06:40:45;;;;;;;14.85;5.53;;;;;;;5.02;96.67;103319.59;4981840;28;20030;-79
2021/12/19 06:43:10;;;;;;;15.35;5.35;;;;;;;5.02;96.94;103318.69;4983186;28;20026;-76
2021/12/19 06:45:36;;;;;;;16.90;5.90;;;;;;;5.01;96.78;103314.22;4982198;28;20109;-77
2021/12/19 06:48:01;;;;;;;16.08;6.07;;;;;;;5.03;96.82;103315.97;4990578;28;20022;-76
2021/12/19 06:50:27;;;;;;;15.98;5.90;;;;;;;5.05;96.84;103306.06;4982367;28;20030;-77
2021/12/19 06:52:52;;;;;;;14.65;5.97;;;;;;;5.08;96.56;103302.44;4990631;28;20453;-78
2021/12/19 06:55:18;;;;;;;12.90;5.68;;;;;;;5.06;96.73;103290.78;4988336;28;20034;-76
2021/12/19 06:57:45;;;;;;;19.25;7.55;;;;;;;5.08;96.79;103291.63;4990724;28;20026;-78
2021/12/19 07:00:17;;;;;;;14.13;6.25;;;;;;;5.04;96.80;103273.72;4990022;28;20057;-78
2021/12/19 07:02:42;;;;;;;17.23;6.72;;;;;;;5.08;96.94;103278.16;4986686;28;20068;-76
2021/12/19 07:05:09;;;;;;;22.75;6.40;;;;;;;5.08;97.01;103276.38;4980221;28;20050;-79
2021/12/19 07:07:34;;;;;;;23.27;7.22;;;;;;;5.11;96.91;103284.41;4988891;28;20124;-75
2021/12/19 07:10:00;;;;;;;18.88;6.93;;;;;;;5.11;96.83;103273.63;4990355;28;20455;-77
2021/12/19 07:12:26;;;;;;;21.80;8.32;;;;;;;5.11;96.91;103280.81;4990021;28;20033;-76
2021/12/19 07:14:53;;;;;;;19.88;7.65;;;;;;;5.13;96.83;103281.72;4976370;28;20028;-75
2021/12/19 07:17:18;;;;;;;18.25;7.22;;;;;;;5.14;97.08;103279.91;4982892;28;20465;-74
2021/12/19 07:19:44;;;;;;;20.63;8.15;;;;;;;5.13;97.21;103279.03;4972702;28;20121;-76
2021/12/19 07:22:09;;;;;;;22.65;8.25;;;;;;;5.16;97.02;103280.78;4989714;28;20061;-78
2021/12/19 07:24:34;;;;;;;23.23;8.02;;;;;;;5.14;97.07;103278.09;4990465;28;20622;-77
2021/12/19 07:27:00;;;;;;;21.75;8.00;;;;;;;5.18;97.09;103279.88;4983381;28;20124;-78
2021/12/19 07:29:25;;;;;;;19.00;8.18;;;;;;;5.16;97.32;103287.06;4989588;28;20034;-76
2021/12/19 07:31:50;;;;;;;20.40;8.15;;;;;;;5.19;97.38;103278.06;4990835;28;20037;-79
2021/12/19 07:34:16;;;;;;;18.83;7.40;;;;;;;5.18;97.34;103279.88;4973234;28;20037;-76
2021/12/19 07:36:48;;;;;;;23.30;8.30;;;;;;;5.20;97.55;103275.34;4987601;28;20065;-75
2021/12/19 07:39:38;;;;;;;22.95;8.20;;;;;;;5.23;97.09;103269.03;4989952;28;20026;-76
2021/12/19 07:42:09;;;;;;;21.60;8.57;;;;;;;5.22;97.47;103273.53;4976012;28;20026;-79
2021/12/19 07:44:35;;;;;;;24.02;9.68;;;;;;;5.24;97.38;103276.19;4989734;28;20709;-79
2021/12/19 07:47:02;;;;;;;23.27;7.70;;;;;;;5.24;97.48;103269.00;4987127;28;20034;-79
2021/12/19 07:49:27;;;;;;;23.88;8.60;;;;;;;5.25;97.53;103265.38;4980081;28;20041;-76
2021/12/19 07:51:53;;;;;;;20.30;9.05;;;;;;;5.27;97.45;103263.56;4987471;28;20394;-76
2021/12/19 07:54:18;;;;;;;21.30;7.45;;;;;;;5.27;97.40;103266.28;4987682;28;20014;-75
2021/12/19 07:56:44;;;;;;;21.45;8.13;;;;;;;5.29;97.36;103258.16;4988744;28;20065;-77
2021/12/19 07:59:09;;;;;;;22.95;8.73;;;;;;;5.30;97.58;103257.22;4987694;28;20469;-78
2021/12/19 08:01:34;;;;;;;21.55;8.23;;;;;;;5.29;97.30;103261.75;4988217;28;20081;-76
2021/12/19 08:03:59;;;;;;;17.42;8.45;;;;;;;5.34;97.33;103256.28;4987033;28;20125;-76
2021/12/19 08:06:25;;;;;;;21.90;8.25;;;;;;;5.35;97.29;103263.47;4987112;28;20113;-76
2021/12/19 08:08:53;;;;;;;20.02;8.82;;;;;;;5.34;97.54;103253.59;4990729;28;20030;-76
2021/12/19 08:14:04;;;;;;;22.95;7.40;;;;;;;5.40;97.62;103249.91;4989380;28;20049;-76
2021/12/19 08:16:30;;;;;;;15.20;6.05;;;;;;;5.40;97.62;103249.91;4989572;28;20026;-75
2021/12/19 08:18:55;;;;;;;15.95;6.85;;;;;;;5.41;97.51;103255.31;4980877;28;20041;-76
2021/12/19 08:21:20;;;;;;;12.30;6.30;;;;;;;5.41;97.26;103251.69;4988240;28;20553;-78
2021/12/19 08:23:46;;;;;;;13.63;5.72;;;;;;;5.45;97.64;103248.03;4988845;28;20041;-77
2021/12/19 08:26:12;;;;;;;13.07;6.72;;;;;;;5.47;97.34;103248.94;4989122;28;20497;-76
2021/12/19 08:28:37;;;;;;;15.18;5.95;;;;;;;5.47;97.38;103239.03;4984862;28;20093;-76
2021/12/19 08:31:03;;;;;;;13.43;6.22;;;;;;;5.51;97.77;103254.28;4982609;28;20069;-76
2021/12/19 08:33:28;;;;;;;14.55;6.40;;;;;;;5.52;97.74;103247.97;4988113;28;20038;-75
2021/12/19 08:35:54;;;;;;;14.77;6.07;;;;;;;5.54;97.58;103245.22;4980835;28;20022;-79
2021/12/19 08:38:19;;;;;;;10.55;5.38;;;;;;;5.57;97.10;103246.09;4988593;28;20109;-76
2021/12/19 08:40:46;;;;;;;13.18;5.38;;;;;;;5.61;97.36;103247.84;4968458;28;20572;-75
2021/12/19 08:43:12;;;;;;;13.75;5.80;;;;;;;5.62;97.51;103244.22;4985029;28;20069;-75
2021/12/19 08:45:37;;;;;;;8.88;4.85;;;;;;;5.66;97.44;103253.19;4981953;28;20030;-76
2021/12/19 08:48:04;;;;;;;14.70;4.72;;;;;;;5.68;97.56;103250.44;4982776;28;20033;-74
2021/12/19 08:50:29;;;;;;;12.10;4.63;;;;;;;5.71;97.53;103250.44;4977324;28;20097;-76
2021/12/19 08:52:55;;;;;;;10.75;4.93;;;;;;;5.73;97.51;103240.47;4987851;28;20018;-76
2021/12/19 08:55:21;;;;;;;12.02;4.70;;;;;;;5.74;97.36;103242.28;4986995;28;20061;-76
2021/12/19 08:57:47;;;;;;;13.02;5.78;;;;;;;5.75;97.31;103241.38;4965994;28;20047;-75
2021/12/19 09:00:14;;;;;;;12.02;6.75;;;;;;;5.77;97.55;103237.72;4980387;28;20033;-78
2021/12/19 09:02:45;;;;;;;12.63;6.63;;;;;;;5.80;97.62;103243.09;4977924;28;20030;-76
2021/12/19 09:05:11;;;;;;;18.10;9.10;;;;;;;5.83;97.09;103234.94;4986143;28;20057;-76
2021/12/19 09:07:36;;;;;;;19.40;9.65;;;;;;;5.84;97.09;103235.84;4986665;28;20536;-76
2021/12/19 09:10:04;;;;;;;14.18;7.88;;;;;;;5.85;97.10;103235.81;4988216;28;20023;-76
2021/12/19 09:12:29;;;;;;;13.35;7.50;;;;;;;5.87;97.12;103236.69;4974755;28;20482;-75
2021/12/19 09:14:55;;;;;;;13.52;6.50;;;;;;;5.88;97.34;103224.97;4986367;28;20037;-75
2021/12/19 09:17:20;;;;;;;12.68;7.00;;;;;;;5.88;97.02;103230.38;4972592;28;20038;-76
2021/12/19 09:19:45;;;;;;;11.00;5.68;;;;;;;5.89;96.48;103229.44;4985145;28;20037;-76
2021/12/19 09:22:11;;;;;;;11.27;6.50;;;;;;;5.91;96.98;103225.81;4987883;28;20558;-76
2021/12/19 09:24:36;;;;;;;9.57;5.00;;;;;;;5.92;97.19;103223.13;4985740;28;20434;-75
2021/12/19 09:27:03;;;;;;;8.50;4.43;;;;;;;5.93;96.87;103218.66;4986480;28;20022;-79
2021/12/19 09:29:29;;;;;;;8.80;4.50;;;;;;;5.95;97.15;103214.97;4988384;28;20060;-76
2021/12/19 09:31:56;;;;;;;9.40;4.88;;;;;;;5.96;96.91;103219.47;4987701;28;20029;-76
2021/12/19 09:34:22;;;;;;;10.80;4.72;;;;;;;5.99;97.27;103222.13;4973641;28;20453;-78
2021/12/19 09:36:47;;;;;;;10.70;4.68;;;;;;;5.98;97.09;103217.66;4983832;28;20572;-76
2021/12/19 09:39:13;;;;;;;11.70;5.05;;;;;;;6.00;96.97;103218.50;4986752;28;20034;-76
2021/12/19 09:41:44;;;;;;;9.13;5.05;;;;;;;6.01;96.80;103214.00;4986048;28;20038;-75
2021/12/19 09:44:11;;;;;;;8.65;3.95;;;;;;;6.02;96.90;103226.63;4974383;28;20101;-78
2021/12/19 09:46:42;;;;;;;9.27;4.45;;;;;;;6.02;97.07;103218.50;4981692;28;20027;-77
2021/12/19 09:49:10;;;;;;;12.93;4.05;;;;;;;6.03;97.38;103218.47;4985592;28;20541;-76
2021/12/19 09:51:36;;;;;;;8.77;4.28;;;;;;;6.05;96.73;103215.72;4987428;28;20552;-75
2021/12/19 09:54:03;;;;;;;12.43;4.80;;;;;;;6.05;97.08;103213.91;4985765;28;20097;-76
2021/12/19 09:56:30;;;;;;;13.25;4.85;;;;;;;6.07;97.05;103216.63;4980254;28;20034;-79
2021/12/19 09:58:55;;;;;;;10.05;4.70;;;;;;;6.06;96.83;103218.44;4983535;28;20018;-76
2021/12/19 10:01:21;;;;;;;11.50;5.38;;;;;;;6.09;97.36;103225.59;4978064;28;20089;-78
2021/12/19 10:03:46;;;;;;;11.45;5.55;;;;;;;6.11;97.19;103223.78;4986991;28;20504;-75
2021/12/19 10:06:16;;;;;;;11.45;5.85;;;;;;;6.12;96.84;103221.03;4988163;28;20038;-76
2021/12/19 10:08:41;;;;;;;11.68;5.22;;;;;;;6.12;96.70;103215.63;4990484;28;20034;-76
2021/12/19 10:12:12;;;;;;;14.20;5.70;;;;;;;6.16;96.85;103216.47;4989684;28;20018;-76
2021/12/19 10:14:35;;;;;;;10.38;4.75;;;;;;;6.18;96.89;103216.44;4979560;28;20042;-76
2021/12/19 10:17:04;;;;;;;9.45;5.43;;;;;;;6.17;96.54;103206.56;4990634;28;20014;-77
2021/12/19 10:19:48;;;;;;;10.85;5.80;;;;;;;6.20;96.38;103203.78;4977552;28;20038;-77
2021/12/19 10:22:35;;;;;;;12.77;5.53;;;;;;;6.22;96.65;103202.84;4991339;28;20030;-77
2021/12/19 10:25:22;;;;;;;11.15;5.68;;;;;;;6.22;96.42;103199.25;4973963;28;20120;-78
2021/12/19 10:28:00;;;;;;;11.27;6.20;;;;;;;6.23;96.48;103204.63;4990586;28;20035;-76
2021/12/19 10:30:46;;;;;;;9.15;5.32;;;;;;;6.26;96.73;103195.59;4989444;28;20117;-75
2021/12/19 10:33:14;;;;;;;10.80;5.13;;;;;;;6.26;96.63;103195.59;4980144;28;20397;-75
2021/12/19 10:35:42;;;;;;;13.02;5.53;;;;;;;6.23;96.23;103193.81;4984972;28;20023;-76
2021/12/19 10:38:22;;;;;;;14.20;6.80;;;;;;;6.22;96.20;103183.03;4991171;28;20076;-75
2021/12/19 10:40:58;;;;;;;11.98;5.97;;;;;;;6.22;96.52;103174.94;4980761;28;20042;-75
2021/12/19 10:43:27;;;;;;;11.15;5.50;;;;;;;6.27;96.15;103181.16;4977541;28;20023;-77
2021/12/19 10:46:01;;;;;;;10.63;5.03;;;;;;;6.28;95.01;103189.22;4989788;28;20045;-75
2021/12/19 10:48:37;;;;;;;6.35;3.60;;;;;;;6.25;94.77;103164.06;4990637;28;20018;-74
2021/12/19 10:51:15;;;;;;;7.78;4.07;;;;;;;6.29;95.31;103169.38;4984536;28;20053;-75
2021/12/19 10:53:53;;;;;;;5.75;3.30;;;;;;;6.31;94.95;103169.38;4991184;28;20030;-78
2021/12/19 10:56:29;;;;;;;7.80;3.97;;;;;;;6.28;95.64;103162.19;4980899;28;20031;-75
2021/12/19 10:59:01;;;;;;;7.15;4.20;;;;;;;6.29;95.60;103166.69;4978568;28;20101;-76
2021/12/19 11:01:35;;;;;;;7.18;4.03;;;;;;;6.31;95.86;103166.69;4982480;28;20035;-77
2021/12/19 11:04:11;;;;;;;7.82;4.13;;;;;;;6.32;95.45;103163.03;4976971;28;20394;-76
2021/12/19 11:06:38;;;;;;;7.18;3.20;;;;;;;6.32;94.90;103155.81;4988233;28;20113;-76
2021/12/19 11:09:07;;;;;;;5.40;3.28;;;;;;;6.31;95.12;103148.63;4989353;28;20030;-77
2021/12/19 11:11:41;;;;;;;6.13;3.47;;;;;;;6.35;94.52;103146.78;4988688;28;20108;-76
2021/12/19 11:14:11;;;;;;;5.30;2.72;;;;;;;6.34;94.26;103144.97;4984865;28;20030;-76
2021/12/19 11:16:37;;;;;;;6.82;2.80;;;;;;;6.35;94.11;103141.38;4987780;28;20482;-77
2021/12/19 11:19:03;;;;;;;5.68;2.53;;;;;;;6.33;94.16;103125.16;4985191;28;20030;-76
2021/12/19 11:21:33;;;;;;;4.13;2.00;;;;;;;6.33;94.13;103114.34;4986226;28;20131;-76
2021/12/19 11:24:00;;;;;;;4.95;2.50;;;;;;;6.36;94.33;103121.53;4990581;28;20041;-74
2021/12/19 11:26:25;;;;;;;3.83;2.25;;;;;;;6.39;93.50;103114.25;4983997;28;20478;-75
2021/12/19 11:28:55;;;;;;;3.47;1.98;;;;;;;6.40;93.43;103109.75;4989127;28;20027;-77
2021/12/19 11:31:20;;;;;;;2.92;2.05;;;;;;;6.44;93.45;103103.34;4988104;28;20053;-76
2021/12/19 11:33:51;;;;;;;2.78;1.90;;;;;;;6.50;93.82;103097.81;4985909;28;20034;-76
2021/12/19 11:36:18;;;;;;;4.53;2.03;;;;;;;6.53;94.17;103094.19;4982409;28;20084;-75
2021/12/19 11:38:46;;;;;;;2.63;2.05;;;;;;;6.52;93.84;103082.44;4990036;28;20054;-78
2021/12/19 11:41:11;;;;;;;4.05;2.45;;;;;;;6.54;93.14;103091.44;4986741;28;20030;-76
2021/12/19 11:43:38;;;;;;;3.95;2.10;;;;;;;6.55;93.34;103090.50;4990124;28;20022;-78
2021/12/19 11:46:12;;;;;;;5.03;2.72;;;;;;;6.53;92.75;103083.38;4979455;28;20058;-75
2021/12/19 11:48:38;;;;;;;4.35;2.28;;;;;;;6.54;92.64;103090.56;4983831;28;20381;-76
2021/12/19 11:51:16;;;;;;;5.80;2.40;;;;;;;6.54;92.40;103083.31;4979980;28;20536;-75
2021/12/19 11:53:43;;;;;;;3.38;2.05;;;;;;;6.55;93.09;103074.28;4974462;28;20081;-76
2021/12/19 11:56:14;;;;;;;2.60;2.10;;;;;;;6.58;92.96;103082.34;4979702;28;20026;-75
2021/12/19 11:58:51;;;;;;;2.72;1.52;;;;;;;6.62;92.61;103084.06;4989865;28;20041;-78
2021/12/19 12:01:23;;;;;;;1.98;1.30;;;;;;;6.64;92.09;103076.81;4979938;28;20031;-75
2021/12/19 12:03:48;;;;;;;;;;;;;;;6.68;93.04;103074.94;4986442;28;20156;-77
2021/12/19 12:06:15;;;;;;;2.60;1.83;;;;;;;6.65;92.56;103065.06;4983602;28;19930;-75
2021/12/19 12:09:03;;;;;;;4.15;1.75;;;;;;;6.64;91.27;103068.69;4989212;28;20288;-74
2021/12/19 12:11:29;;;;;;;2.88;2.08;;;;;;;6.61;91.11;103066.03;4986458;28;20105;-75
2021/12/19 12:14:21;;;;;;;2.30;1.63;;;;;;;6.61;91.07;103060.63;4976801;28;20375;-76
2021/12/19 12:16:54;;;;;;;3.28;2.00;;;;;;;6.59;91.37;103062.50;4989213;28;20023;-75
2021/12/19 12:19:46;;;;;;;4.82;2.40;;;;;;;6.60;91.73;103061.56;4986856;28;20038;-75
2021/12/19 12:22:24;;;;;;;6.57;2.33;;;;;;;6.60;91.59;103060.66;4988511;28;20057;-75
2021/12/19 12:25:20;;;;;;;4.55;2.72;;;;;;;6.60;91.68;103055.25;4979888;28;20066;-75
2021/12/19 12:27:51;;;;;;;4.75;2.70;;;;;;;6.58;91.58;103044.50;4986543;28;20626;-77
2021/12/19 12:30:22;;;;;;;2.70;2.30;;;;;;;6.60;92.63;103041.75;4981770;28;20038;-75
2021/12/19 12:32:48;;;;;;;5.10;2.45;;;;;;;6.60;92.42;103041.75;4985767;28;20030;-75